Saint Clair, Ohio
Current Conditions -  °F | °C
As of 2:53 AM on Friday 28 Nov 2014 (Local Time) from KHAO Reporting Station
Light Snow Light Snow  
Wind Chill: 22°   Ceiling: 4000
Heat Index: 27°   Visibility: 10mi
Dew Point: 19°   Wind: 5mph
Humidity: 72%   Direction: 310°NW
Pressure: 30.41"   Gusts: NA
Location:  39.4247°N, 84.5012°W
Report Text: KHAO 280753Z AUTO 31004KT 10SM -SN FEW030 OVC040 M03/M07 A3041 RMK AO2 SNB34 SLP305 P0000 T10281072
Loading
Personal Weather Stations






























Interactive Weather Map New forecast layout! Learn more

10-Day Weather Forecast

Advertisements
Track Severe Weather on mobile